Das ist die Wetter- und Hausseite der Bittkau's aus Magdeburg Ottersleben


Hier werden aktuelle Daten aus der privaten Wetterstation und

andere lokale Wettervorhersagen bereitgestellt




Thunder radar more information blitzortung!


Rain radar more information rain snow radar



Es ist keine erhöhte Aufmerksamkeit aufgrund des Wetters notwendig.    Es gibt keine Warnungen.

METAR-Meldungen aus der Umgebung

   
EDDP - Leipzig
Aktualisierung: 27.01.2020 7:50
Stark bewölkt  
Stark bewölkt  
   Wind: Süden 20.4 km/h
Wind: Süden 20.4 km/h
Temperatur: 6°C
Gefühlt: 2°C
Taupunkt: 3°C
Luftfeuchte: 81%
Luftdruck: 1005 hPa
Bewölkt: Stark bewölkt
Sichtbarkeit: More than 10 km
Bewölkung: Stark bewölkt 1310.6 m
EDDP 271850Z 18011KT 9999 BKN043 06/03 Q1005 NOSIG
EDDC - Dresden
Aktualisierung: 27.01.2020 7:50
Leichter Niederschlag möglich, Stark bewölkt  
Leichter Niederschlag möglich, Stark bewölkt  
   Wind: Süden 24.1 km/h
Wind: Süden 24.1 km/h
Temperatur: 5°C
Gefühlt: 1°C
Taupunkt: 2°C
Luftfeuchte: 81%
Luftdruck: 1007 hPa
Bewölkt: Stark bewölkt
Sichtbarkeit: More than 10 km
Bewölkung: Stark bewölkt 1371.6 m
EDDC 271850Z 17013KT 9999 -RA BKN045 05/02 Q1007 NOSIG
EDDE - Erfurt
Aktualisierung: 27.01.2020 7:50
leicht bewölkt  
leicht bewölkt  
   Wind: SSW 22.2 km/h
Wind: SSW 22.2 km/h
Temperatur: 6°C
Gefühlt: 2°C
Taupunkt: 3°C
Luftfeuchte: 81%
Luftdruck: 1004 hPa
Bewölkt: leicht bewölkt
Sichtbarkeit: More than 10 km
Bewölkung: leicht bewölkt 609.6 m
EDDE 271850Z 20012KT 9999 FEW020 06/03 Q1004 NOSIG
EDVE - Braunschweig
Aktualisierung: 27.01.2020 7:50
Leichter Niederschlag möglich, Bewölkt  
Leichter Niederschlag möglich, Bewölkt  
   Wind: SSW 16.7 km/h
Wind: SSW 16.7 km/h
Temperatur: 6°C
Gefühlt: 3°C
Taupunkt: 4°C
Luftfeuchte: 87%
Luftdruck: 1003 hPa
Bewölkt: Bewölkt
Sichtbarkeit: More than 10 km
Bewölkung: leicht bewölkt 274.3 m,
Teilweise bewölkt 365.8 m,
Bewölkt 1127.8 m
EDVE 271850Z 21009KT 170V260 9999 -RA FEW009 SCT012 OVC037 06/04 Q1003
EDDV - Hannover
Aktualisierung: 27.01.2020 7:50
Leichter Niederschlag möglich, Stark bewölkt  
Leichter Niederschlag möglich, Stark bewölkt  
   Wind: Süden 13 km/h
Wind: Süden 13 km/h
Temperatur: 7°C
Gefühlt: 4°C
Taupunkt: 5°C
Luftfeuchte: 87%
Luftdruck: 1002 hPa
Bewölkt: Stark bewölkt
Sichtbarkeit: More than 10 km
Bewölkung: leicht bewölkt 762 m,
Stark bewölkt 1371.6 m
EDDV 271850Z 18007KT 150V210 9999 -RA FEW025 BKN045 07/05 Q1002 NOSIG
EDDT - Berlin
Aktualisierung: 27.01.2020 7:50
Stark bewölkt  
Stark bewölkt  
   Wind: Süden 18.5 km/h
Wind: Süden 18.5 km/h
Temperatur: 9°C
Gefühlt: 6°C
Taupunkt: 4°C
Luftfeuchte: 71%
Luftdruck: 1005 hPa
Bewölkt: Stark bewölkt
Sichtbarkeit: More than 10 km
Bewölkung: Stark bewölkt 1127.8 m
EDDT 271850Z 18010KT 9999 BKN037 09/04 Q1005 NOSIG
EDDE - Schwerin
Aktualisierung: 27.01.2020 7:50
leicht bewölkt  
leicht bewölkt  
   Wind: SSW 22.2 km/h
Wind: SSW 22.2 km/h
Temperatur: 6°C
Gefühlt: 2°C
Taupunkt: 3°C
Luftfeuchte: 81%
Luftdruck: 1004 hPa
Bewölkt: leicht bewölkt
Sichtbarkeit: More than 10 km
Bewölkung: leicht bewölkt 609.6 m
EDDE 271850Z 20012KT 9999 FEW020 06/03 Q1004 NOSIG
EDHI - Hamburg
Aktualisierung: 27.01.2020 7:50
Leichter Nieselregen, Stark bewölkt  
Leichter Nieselregen, Stark bewölkt  
   Wind: Süden 7.4 km/h
Wind: Süden 7.4 km/h
Temperatur: 7°C
Gefühlt: 6°C
Taupunkt: 6°C
Luftfeuchte: 93%
Luftdruck: 1001 hPa
Bewölkt: Stark bewölkt
Sichtbarkeit: 5 km
Bewölkung: Teilweise bewölkt 213.4 m,
Teilweise bewölkt 304.8 m,
Stark bewölkt 396.2 m
EDHI 271850Z 19004KT 140V230 5000 -DZ SCT007 SCT010 BKN013 07/06 Q1001
EDDK - Köln-Bonn
Aktualisierung: 27.01.2020 7:50
leicht bewölkt  
leicht bewölkt  
   Wind: SO 18.5 km/h
Wind: SO 18.5 km/h
Temperatur: 7°C
Gefühlt: 4°C
Taupunkt: 6°C
Luftfeuchte: 93%
Luftdruck: 1002 hPa
Bewölkt: leicht bewölkt
Sichtbarkeit: More than 10 km
Bewölkung: leicht bewölkt 1036.3 m
EDDK 271850Z 14010KT 9999 FEW034 07/06 Q1002 NOSIG
EDHL - Lübeck-Blankensee
Aktualisierung: 27.01.2020 7:50
Nieselregen, Nebel, Stark bewölkt  
Nieselregen, Nebel, Stark bewölkt  
   Wind: SSO 7.4 km/h
Wind: SSO 7.4 km/h
Temperatur: 7°C
Gefühlt: 6°C
Taupunkt: 6°C
Luftfeuchte: 93%
Luftdruck: 1002 hPa
Bewölkt: Stark bewölkt
Sichtbarkeit: 3 km
Bewölkung: Stark bewölkt 457.2 m
EDHL 271850Z 16004KT 3000 DZ BR BKN015 07/06 Q1002
  

Script entwickelt von  Saratoga-weather.org Angepasst für das Template von  Weerstation Leuven

Sie finden die Wetterinfo auch auf:

Wetternetzwerk Deutschland

European Weather Network

Weather Underground

Regionalwetter-SA

wetter.com

wxforum.de

Genutzte Hardware, Software und WEB Anbieter:

Wetterstation
Ventus W928-Ultimate

Wetterprogramm
Meteohub

WetterComputer
RaspberryPI

Anbieter
WEB Provider One.com

Ventus W928-Ultimate

Meteohub

RaspberryPI

WEB Provider One.com